createdAt,value
2018-09-19T00:00:35.602Z,968.13
2018-09-19T00:01:45.763Z,968.12
2018-09-19T00:02:55.908Z,968.04
2018-09-19T00:04:06.052Z,968.01
2018-09-19T00:05:16.207Z,968.01
2018-09-19T00:06:26.144Z,968.05
2018-09-19T00:07:36.285Z,968.07
2018-09-19T00:08:46.472Z,968.06
2018-09-19T00:09:56.074Z,968.07
2018-09-19T00:11:06.232Z,968.08
2018-09-19T00:12:16.141Z,968.08
2018-09-19T00:13:26.294Z,968.06
2018-09-19T00:14:36.442Z,968.06
2018-09-19T00:15:46.072Z,968
2018-09-19T00:16:55.956Z,968.02
2018-09-19T00:18:06.158Z,968.03
2018-09-19T00:19:16.305Z,968.01
2018-09-19T00:20:26.477Z,968.05
2018-09-19T00:21:36.625Z,968.11
2018-09-19T00:22:46.981Z,968.1
2018-09-19T00:23:56.884Z,968.16
2018-09-19T00:25:07.055Z,968.15
2018-09-19T00:26:17.202Z,968.14
2018-09-19T00:27:27.346Z,968.22
2018-09-19T00:28:37.513Z,968.13
2018-09-19T00:29:47.724Z,968.17
2018-09-19T00:30:57.929Z,968.18
2018-09-19T00:32:08.075Z,968.2
2018-09-19T00:33:18.229Z,968.25
2018-09-19T00:34:28.445Z,968.25
2018-09-19T00:35:38.368Z,968.21
2018-09-19T00:36:48.515Z,968.26
2018-09-19T00:37:58.387Z,968.33
2018-09-19T00:39:08.539Z,968.36
2018-09-19T00:40:18.701Z,968.35
2018-09-19T00:41:28.909Z,968.34
2018-09-19T00:42:39.113Z,968.37
2018-09-19T00:43:48.983Z,968.35
2018-09-19T00:44:59.136Z,968.3
2018-09-19T00:46:09.283Z,968.34
2018-09-19T00:47:19.484Z,968.35
2018-09-19T00:48:29.668Z,968.35
2018-09-19T00:49:39.549Z,968.31
2018-09-19T00:50:49.689Z,968.26
2018-09-19T00:51:59.943Z,968.26
2018-09-19T00:53:10.088Z,968.29
2018-09-19T00:54:20.232Z,968.25
2018-09-19T00:55:30.397Z,968.26
2018-09-19T00:56:40.559Z,968.26
2018-09-19T00:57:50.444Z,968.36
2018-09-19T00:59:00.640Z,968.28
2018-09-19T01:00:10.780Z,968.42
2018-09-19T01:01:20.655Z,968.38
2018-09-19T01:02:30.807Z,968.47
2018-09-19T01:03:41.012Z,968.45
2018-09-19T01:04:51.212Z,968.44
2018-09-19T01:06:01.397Z,968.54
2018-09-19T01:07:11.296Z,968.53
2018-09-19T01:08:21.454Z,968.54
2018-09-19T01:09:31.326Z,968.68
2018-09-19T01:10:41.533Z,968.57
2018-09-19T01:11:51.675Z,968.7
2018-09-19T01:13:01.832Z,968.7
2018-09-19T01:14:11.976Z,968.73
2018-09-19T01:15:22.135Z,968.82
2018-09-19T01:16:32.372Z,968.81
2018-09-19T01:17:42.520Z,968.84
2018-09-19T01:18:52.464Z,968.88
2018-09-19T01:20:02.623Z,968.94
2018-09-19T01:21:12.779Z,968.9
2018-09-19T01:22:23.083Z,968.98
2018-09-19T01:23:33.225Z,969.01
2018-09-19T01:24:43.365Z,968.95
2018-09-19T01:25:53.514Z,969
2018-09-19T01:27:03.665Z,969.01
2018-09-19T01:28:13.870Z,968.99
2018-09-19T01:29:24.071Z,968.98
2018-09-19T01:30:33.989Z,968.99
2018-09-19T01:31:44.138Z,969.05
2018-09-19T01:32:54.100Z,969.02
2018-09-19T01:34:04.283Z,969.05
2018-09-19T01:35:14.432Z,969.05
2018-09-19T01:36:24.593Z,969.09
2018-09-19T01:37:34.741Z,969.07
2018-09-19T01:38:44.902Z,969.05
2018-09-19T01:39:55.126Z,969.11
2018-09-19T01:41:05.043Z,969.05
2018-09-19T01:42:15.268Z,969.05
2018-09-19T01:43:25.421Z,969.13
2018-09-19T01:44:35.611Z,969.1
2018-09-19T01:45:45.813Z,969.1
2018-09-19T01:46:55.677Z,969.11
2018-09-19T01:48:05.585Z,969.09
2018-09-19T01:49:15.724Z,969.07
2018-09-19T01:50:25.903Z,969.09
2018-09-19T01:51:36.062Z,969.05
2018-09-19T01:52:46.222Z,969.14
2018-09-19T01:53:56.371Z,969.08
2018-09-19T01:55:06.247Z,969.11
2018-09-19T01:56:16.390Z,969.09
2018-09-19T01:57:26.538Z,969.1
2018-09-19T01:58:36.684Z,969.13
2018-09-19T01:59:46.856Z,969.15
2018-09-19T02:00:57.017Z,969.07
2018-09-19T02:02:07.167Z,969.07
2018-09-19T02:03:17.090Z,969.04
2018-09-19T02:04:27.236Z,969.06
2018-09-19T02:05:37.388Z,969.08
2018-09-19T02:06:47.542Z,969.08
2018-09-19T02:07:57.683Z,969.1
2018-09-19T02:09:07.837Z,969.06
2018-09-19T02:10:17.988Z,969.08
2018-09-19T02:11:28.131Z,969.1
2018-09-19T02:12:38.281Z,969.12
2018-09-19T02:13:48.433Z,969.15
2018-09-19T02:14:59.216Z,969.14
2018-09-19T02:16:09.372Z,969.21
2018-09-19T02:17:19.528Z,969.16
2018-09-19T02:18:29.746Z,969.2
2018-09-19T02:19:39.699Z,969.16
2018-09-19T02:20:49.674Z,969.17
2018-09-19T02:21:59.889Z,969.17
2018-09-19T02:23:09.773Z,969.23
2018-09-19T02:24:19.936Z,969.14
2018-09-19T02:25:29.853Z,969.19
2018-09-19T02:26:40.068Z,969.19
2018-09-19T02:27:50.214Z,969.18
2018-09-19T02:29:00.373Z,969.28
2018-09-19T02:30:10.517Z,969.33
2018-09-19T02:31:20.681Z,969.3
2018-09-19T02:32:30.951Z,969.37
2018-09-19T02:33:41.145Z,969.43
2018-09-19T02:34:51.297Z,969.36
2018-09-19T02:36:01.479Z,969.42
2018-09-19T02:37:11.357Z,969.39
2018-09-19T02:38:21.576Z,969.45
2018-09-19T02:39:31.735Z,969.37
2018-09-19T02:40:41.963Z,969.42
2018-09-19T02:41:52.107Z,969.48
2018-09-19T02:43:02.002Z,969.49
2018-09-19T02:44:11.924Z,969.45
2018-09-19T02:45:22.105Z,969.42
2018-09-19T02:46:32.273Z,969.53
2018-09-19T02:47:42.425Z,969.48
2018-09-19T02:48:52.575Z,969.48
2018-09-19T02:50:02.475Z,969.49
2018-09-19T02:51:12.627Z,969.39
2018-09-19T02:52:22.789Z,969.37
2018-09-19T02:53:32.688Z,969.37
2018-09-19T02:54:42.576Z,969.38
2018-09-19T02:55:52.954Z,969.41
2018-09-19T02:57:03.161Z,969.34
2018-09-19T02:58:13.388Z,969.36
2018-09-19T02:59:23.549Z,969.33
2018-09-19T03:00:33.795Z,969.36
2018-09-19T03:01:44.039Z,969.38
2018-09-19T03:02:54.201Z,969.36
2018-09-19T03:04:04.340Z,969.33
2018-09-19T03:05:14.490Z,969.28
2018-09-19T03:06:24.668Z,969.4
2018-09-19T03:07:34.869Z,969.34
2018-09-19T03:08:45.028Z,969.43
2018-09-19T03:09:55.172Z,969.46
2018-09-19T03:11:05.150Z,969.53
2018-09-19T03:12:15.297Z,969.52
2018-09-19T03:13:25.437Z,969.49
2018-09-19T03:14:35.606Z,969.48
2018-09-19T03:15:45.771Z,969.46
2018-09-19T03:16:55.978Z,969.51
2018-09-19T03:18:06.117Z,969.5
2018-09-19T03:19:16.276Z,969.56
2018-09-19T03:20:26.431Z,969.57
2018-09-19T03:21:36.581Z,969.61
2018-09-19T03:22:46.759Z,969.6
2018-09-19T03:23:56.670Z,969.58
2018-09-19T03:25:06.881Z,969.58
2018-09-19T03:26:16.761Z,969.52
2018-09-19T03:27:26.922Z,969.52
2018-09-19T03:28:36.530Z,969.5
2018-09-19T03:29:46.681Z,969.55
2018-09-19T03:30:56.351Z,969.54
2018-09-19T03:32:06.527Z,969.54
2018-09-19T03:33:16.715Z,969.62
2018-09-19T03:34:26.864Z,969.6
2018-09-19T03:35:37.032Z,969.6
2018-09-19T03:36:47.266Z,969.61
2018-09-19T03:37:57.129Z,969.58
2018-09-19T03:39:07.278Z,969.62
2018-09-19T03:40:17.532Z,969.62
2018-09-19T03:41:27.691Z,969.58
2018-09-19T03:42:37.895Z,969.67
2018-09-19T03:43:47.767Z,969.67
2018-09-19T03:44:57.913Z,969.61
2018-09-19T03:46:08.056Z,969.66
2018-09-19T03:47:17.918Z,969.64
2018-09-19T03:48:28.134Z,969.66
2018-09-19T03:49:38.302Z,969.72
2018-09-19T03:50:48.454Z,969.72
2018-09-19T03:51:58.614Z,969.69
2018-09-19T03:53:08.762Z,969.71
2018-09-19T03:54:18.721Z,969.73
2018-09-19T03:55:28.906Z,969.74
2018-09-19T03:56:39.097Z,969.74
2018-09-19T03:57:49.247Z,969.84
2018-09-19T03:58:59.498Z,969.86
2018-09-19T04:00:09.435Z,969.9
2018-09-19T04:01:19.320Z,969.89
2018-09-19T04:02:29.481Z,969.97
2018-09-19T04:03:39.628Z,969.99
2018-09-19T04:04:49.779Z,970.06
2018-09-19T04:05:59.976Z,970.07
2018-09-19T04:07:10.139Z,970.08
2018-09-19T04:08:20.308Z,970.09
2018-09-19T04:09:30.466Z,970.1
2018-09-19T04:10:40.626Z,970.12
2018-09-19T04:11:50.846Z,970.17
2018-09-19T04:13:01.014Z,970.17
2018-09-19T04:14:11.179Z,970.19
2018-09-19T04:15:21.369Z,970.23
2018-09-19T04:16:31.269Z,970.25
2018-09-19T04:17:41.543Z,970.23
2018-09-19T04:18:52.059Z,970.22
2018-09-19T04:20:01.377Z,970.22
2018-09-19T04:21:11.262Z,970.26
2018-09-19T04:22:21.449Z,970.29
2018-09-19T04:23:31.616Z,970.32
2018-09-19T04:24:41.765Z,970.31
2018-09-19T04:25:51.912Z,970.39
2018-09-19T04:27:02.063Z,970.39
2018-09-19T04:28:12.300Z,970.36
2018-09-19T04:29:22.230Z,970.39
2018-09-19T04:30:32.412Z,970.44
2018-09-19T04:31:42.607Z,970.43
2018-09-19T04:32:52.803Z,970.47
2018-09-19T04:34:02.978Z,970.5
2018-09-19T04:35:13.169Z,970.51
2018-09-19T04:36:23.312Z,970.49
2018-09-19T04:37:33.464Z,970.47
2018-09-19T04:38:43.332Z,970.49
2018-09-19T04:39:53.480Z,970.55
2018-09-19T04:41:03.629Z,970.58
2018-09-19T04:42:13.503Z,970.55
2018-09-19T04:43:23.670Z,970.59
2018-09-19T04:44:33.539Z,970.63
2018-09-19T04:45:43.704Z,970.66
2018-09-19T04:46:53.907Z,970.68
2018-09-19T04:48:04.067Z,970.69
2018-09-19T04:49:14.255Z,970.75
2018-09-19T04:50:24.180Z,970.76
2018-09-19T04:51:34.403Z,970.7
2018-09-19T04:52:45.263Z,970.79
2018-09-19T04:53:55.412Z,970.83
2018-09-19T04:55:05.321Z,970.76
2018-09-19T04:56:15.474Z,970.82
2018-09-19T04:57:25.671Z,970.81
2018-09-19T04:58:35.862Z,970.79
2018-09-19T04:59:46.005Z,970.76
2018-09-19T05:00:56.161Z,970.81
2018-09-19T05:02:06.335Z,970.77
2018-09-19T05:03:16.482Z,970.81
2018-09-19T05:04:26.688Z,970.83
2018-09-19T05:05:36.839Z,970.86
2018-09-19T05:06:47.433Z,970.92
2018-09-19T05:07:57.587Z,970.92
2018-09-19T05:09:07.458Z,970.89
2018-09-19T05:10:17.686Z,970.95
2018-09-19T05:11:27.924Z,970.92
2018-09-19T05:12:38.195Z,970.94
2018-09-19T05:13:48.342Z,970.93
2018-09-19T05:14:58.486Z,970.99
2018-09-19T05:16:08.402Z,971
2018-09-19T05:17:17.998Z,970.99
2018-09-19T05:18:28.140Z,970.99
2018-09-19T05:19:38.280Z,970.95
2018-09-19T05:20:48.421Z,970.93
2018-09-19T05:21:58.568Z,970.94
2018-09-19T05:23:08.716Z,970.93
2018-09-19T05:24:18.865Z,970.93
2018-09-19T05:25:28.776Z,970.93
2018-09-19T05:26:38.927Z,970.94
2018-09-19T05:27:49.123Z,971.03
2018-09-19T05:28:59.262Z,970.95
2018-09-19T05:30:09.176Z,970.97
2018-09-19T05:31:19.333Z,970.92
2018-09-19T05:32:29.341Z,970.98
2018-09-19T05:33:39.596Z,970.96
2018-09-19T05:34:49.743Z,970.95
2018-09-19T05:35:59.341Z,970.97
2018-09-19T05:37:09.212Z,970.97
2018-09-19T05:38:19.359Z,970.95
2018-09-19T05:39:29.552Z,970.92
2018-09-19T05:40:39.146Z,970.95
2018-09-19T05:41:49.300Z,970.92
2018-09-19T05:42:59.440Z,970.91
2018-09-19T05:44:09.590Z,970.89
2018-09-19T05:45:19.729Z,970.92
2018-09-19T05:46:29.910Z,970.89
2018-09-19T05:47:40.237Z,970.89
2018-09-19T05:48:50.408Z,970.96
2018-09-19T05:50:00.553Z,970.92
2018-09-19T05:51:10.485Z,970.94
2018-09-19T05:52:20.635Z,970.92
2018-09-19T05:53:30.784Z,970.94
2018-09-19T05:54:41.031Z,970.97
2018-09-19T05:55:51.264Z,970.98
2018-09-19T05:57:01.460Z,970.98
2018-09-19T05:58:11.345Z,970.96
2018-09-19T05:59:21.232Z,970.97
2018-09-19T06:00:31.374Z,970.97
2018-09-19T06:01:41.551Z,970.98
2018-09-19T06:02:51.745Z,970.94
2018-09-19T06:04:01.609Z,970.99
2018-09-19T06:05:11.478Z,971.05
2018-09-19T06:06:21.634Z,971.07
2018-09-19T06:07:31.502Z,971.08
2018-09-19T06:08:41.716Z,971.07
2018-09-19T06:09:51.870Z,971.07
2018-09-19T06:11:01.742Z,971.1
2018-09-19T06:12:11.631Z,971.09
2018-09-19T06:13:21.774Z,971.12
2018-09-19T06:14:31.988Z,971.16
2018-09-19T06:15:42.135Z,971.21
2018-09-19T06:16:52.274Z,971.21
2018-09-19T06:18:02.427Z,971.16
2018-09-19T06:19:12.572Z,971.14
2018-09-19T06:20:22.773Z,971.16
2018-09-19T06:21:32.936Z,971.21
2018-09-19T06:22:43.082Z,971.15
2018-09-19T06:23:53.235Z,971.16
2018-09-19T06:25:03.099Z,971.16
2018-09-19T06:26:13.299Z,971.23
2018-09-19T06:27:23.164Z,971.18
2018-09-19T06:28:33.310Z,971.22
2018-09-19T06:29:43.462Z,971.23
2018-09-19T06:30:53.612Z,971.2
2018-09-19T06:32:03.816Z,971.3
2018-09-19T06:33:14.074Z,971.31
2018-09-19T06:34:24.223Z,971.3
2018-09-19T06:35:34.438Z,971.27
2018-09-19T06:36:44.590Z,971.24
2018-09-19T06:37:54.621Z,971.3
2018-09-19T06:39:04.491Z,971.34
2018-09-19T06:40:14.744Z,971.37
2018-09-19T06:41:25.016Z,971.47
2018-09-19T06:42:35.277Z,971.48
2018-09-19T06:43:51.695Z,971.54
2018-09-19T06:45:02.087Z,971.55
2018-09-19T06:46:12.509Z,971.54
2018-09-19T06:47:22.921Z,971.6
2018-09-19T06:48:33.073Z,971.6
2018-09-19T06:49:43.331Z,971.59
2018-09-19T06:50:53.205Z,971.56
2018-09-19T06:52:03.407Z,971.59
2018-09-19T06:53:13.618Z,971.57
2018-09-19T06:54:23.776Z,971.52
2018-09-19T06:55:33.979Z,971.63
2018-09-19T06:56:44.132Z,971.6
2018-09-19T06:57:54.290Z,971.72
2018-09-19T06:59:04.166Z,971.63
2018-09-19T07:00:14.312Z,971.7
2018-09-19T07:01:24.691Z,971.7
2018-09-19T07:02:34.564Z,971.69
2018-09-19T07:03:44.719Z,971.73
2018-09-19T07:04:54.576Z,971.74
2018-09-19T07:06:04.768Z,971.72
2018-09-19T07:07:14.934Z,971.67
2018-09-19T07:08:25.071Z,971.66
2018-09-19T07:09:35.211Z,971.61
2018-09-19T07:10:44.850Z,971.62
2018-09-19T07:11:55.093Z,971.67
2018-09-19T07:13:05.084Z,971.76
2018-09-19T07:14:15.271Z,971.73
2018-09-19T07:15:25.426Z,971.73
2018-09-19T07:16:35.747Z,971.71
2018-09-19T07:17:45.894Z,971.72
2018-09-19T07:18:55.886Z,971.72
2018-09-19T07:20:06.556Z,971.59
2018-09-19T07:21:16.155Z,971.64
2018-09-19T07:22:26.306Z,971.66
2018-09-19T07:23:36.467Z,971.7
2018-09-19T07:24:46.990Z,971.79
2018-09-19T07:25:57.166Z,971.74
2018-09-19T07:27:07.374Z,971.8
2018-09-19T07:28:17.516Z,971.77
2018-09-19T07:29:27.670Z,971.82
2018-09-19T07:30:37.865Z,971.89
2018-09-19T07:31:48.017Z,971.88
2018-09-19T07:32:58.202Z,971.91
2018-09-19T07:34:08.355Z,971.99
2018-09-19T07:35:18.219Z,971.96
2018-09-19T07:36:28.145Z,971.97
2018-09-19T07:37:38.344Z,971.88
2018-09-19T07:38:48.210Z,971.87
2018-09-19T07:39:58.354Z,971.8
2018-09-19T07:41:08.278Z,971.84
2018-09-19T07:42:18.223Z,971.8
2018-09-19T07:43:27.812Z,971.84
2018-09-19T07:44:37.679Z,971.73
2018-09-19T07:45:47.848Z,971.77
2018-09-19T07:46:58.006Z,971.71
2018-09-19T07:48:08.158Z,971.69
2018-09-19T07:49:18.364Z,971.72
2018-09-19T07:50:28.513Z,971.71
2018-09-19T07:51:38.384Z,971.77
2018-09-19T07:52:48.535Z,971.74
2018-09-19T07:53:58.737Z,971.77
2018-09-19T07:55:08.906Z,971.77
2018-09-19T07:56:19.384Z,971.74
2018-09-19T07:57:29.536Z,971.78
2018-09-19T07:58:39.412Z,971.79
2018-09-19T07:59:49.344Z,971.86
2018-09-19T08:00:59.542Z,971.86
2018-09-19T08:02:10.010Z,971.88
2018-09-19T08:03:20.223Z,971.86
2018-09-19T08:04:30.409Z,971.86
2018-09-19T08:05:40.287Z,971.88
2018-09-19T08:06:50.491Z,971.86
2018-09-19T08:08:00.641Z,971.94
2018-09-19T08:09:10.926Z,971.93
2018-09-19T08:10:21.611Z,971.92
2018-09-19T08:11:31.822Z,971.95
2018-09-19T08:12:41.996Z,971.94
2018-09-19T08:13:51.867Z,972.01
2018-09-19T08:15:02.029Z,972
2018-09-19T08:16:12.215Z,972
2018-09-19T08:17:23.212Z,971.89
2018-09-19T08:18:33.362Z,971.89
2018-09-19T08:19:43.522Z,971.99
2018-09-19T08:20:53.665Z,972.02
2018-09-19T08:22:03.926Z,971.9
2018-09-19T08:23:13.804Z,971.85
2018-09-19T08:24:23.971Z,971.8
2018-09-19T08:25:34.152Z,971.79
2018-09-19T08:26:44.319Z,971.8
2018-09-19T08:27:54.468Z,971.8
2018-09-19T08:29:04.632Z,971.83
2018-09-19T08:30:14.779Z,971.94
2018-09-19T08:31:24.934Z,972.01
2018-09-19T08:32:35.091Z,972.08
2018-09-19T08:33:45.254Z,972.13
2018-09-19T08:34:55.454Z,972.12
2018-09-19T08:36:05.338Z,972.1
2018-09-19T08:37:15.490Z,972.22
2018-09-19T08:38:25.644Z,972.11
2018-09-19T08:39:35.795Z,972.18
2018-09-19T08:40:46.002Z,972.11
2018-09-19T08:41:56.155Z,972.12
2018-09-19T08:43:06.023Z,972.16
2018-09-19T08:44:16.167Z,972.21
2018-09-19T08:45:26.318Z,972.36
2018-09-19T08:46:36.480Z,972.35
2018-09-19T08:47:46.634Z,972.32
2018-09-19T08:48:56.781Z,972.31
2018-09-19T08:50:06.998Z,972.23
2018-09-19T08:51:17.154Z,972.22
2018-09-19T08:52:28.161Z,972.33
2018-09-19T08:53:38.307Z,972.33
2018-09-19T08:54:48.490Z,972.29
2018-09-19T08:55:58.651Z,972.34
2018-09-19T08:57:08.839Z,972.34
2018-09-19T08:58:19.354Z,972.36
2018-09-19T08:59:29.503Z,972.33
2018-09-19T09:00:39.097Z,972.37
2018-09-19T09:01:48.970Z,972.41
2018-09-19T09:02:59.119Z,972.47
2018-09-19T09:04:09.270Z,972.41
2018-09-19T09:05:19.467Z,972.49
2018-09-19T09:06:29.895Z,972.48
2018-09-19T09:07:40.041Z,972.4
2018-09-19T09:08:49.912Z,972.4
2018-09-19T09:10:00.167Z,972.43
2018-09-19T09:11:10.318Z,972.37
2018-09-19T09:12:20.545Z,972.44
2018-09-19T09:13:31.185Z,972.39
2018-09-19T09:14:41.384Z,972.38
2018-09-19T09:15:51.266Z,972.45
2018-09-19T09:17:01.413Z,972.42
2018-09-19T09:18:11.565Z,972.43
2018-09-19T09:19:21.717Z,972.33
2018-09-19T09:20:31.919Z,972.4
2018-09-19T09:21:41.805Z,972.39
2018-09-19T09:22:51.695Z,972.45
2018-09-19T09:24:01.890Z,972.45
2018-09-19T09:25:12.037Z,972.4
2018-09-19T09:26:22.183Z,972.39
2018-09-19T09:27:32.337Z,972.33
2018-09-19T09:28:42.500Z,972.29
2018-09-19T09:29:52.372Z,972.32
2018-09-19T09:31:02.648Z,972.28
2018-09-19T09:32:13.084Z,972.32
2018-09-19T09:33:22.840Z,972.35
2018-09-19T09:34:32.989Z,972.36
2018-09-19T09:35:43.141Z,972.41
2018-09-19T09:36:53.108Z,972.44
2018-09-19T09:38:03.712Z,972.49
2018-09-19T09:39:13.875Z,972.51
2018-09-19T09:40:24.260Z,972.49
2018-09-19T09:41:34.859Z,972.51
2018-09-19T09:42:44.733Z,972.54
2018-09-19T09:43:54.884Z,972.6
2018-09-19T09:45:05.048Z,972.59
2018-09-19T09:46:14.988Z,972.71
2018-09-19T09:47:25.136Z,972.66
2018-09-19T09:48:35.299Z,972.68
2018-09-19T09:49:45.193Z,972.75
2018-09-19T09:50:55.344Z,972.74
2018-09-19T09:52:05.513Z,972.71
2018-09-19T09:53:15.723Z,972.78
2018-09-19T09:54:26.284Z,972.7
2018-09-19T09:55:35.888Z,972.75
2018-09-19T09:56:46.061Z,972.72
2018-09-19T09:57:56.235Z,972.7
2018-09-19T09:59:06.396Z,972.67
2018-09-19T10:00:16.594Z,972.66
2018-09-19T10:01:26.744Z,972.72
2018-09-19T10:02:36.672Z,972.67
2018-09-19T10:03:46.828Z,972.63
2018-09-19T10:04:56.971Z,972.67
2018-09-19T10:06:06.835Z,972.7
2018-09-19T10:07:16.722Z,972.68
2018-09-19T10:08:26.914Z,972.63
2018-09-19T10:09:37.144Z,972.64
2018-09-19T10:10:47.011Z,972.65
2018-09-19T10:11:56.892Z,972.63
2018-09-19T10:13:07.037Z,972.65
2018-09-19T10:14:16.903Z,972.68
2018-09-19T10:15:27.054Z,972.64
2018-09-19T10:16:37.204Z,972.71
2018-09-19T10:17:47.074Z,972.61
2018-09-19T10:18:56.941Z,972.74
2018-09-19T10:20:06.819Z,972.68
2018-09-19T10:21:16.975Z,972.77
2018-09-19T10:22:27.126Z,972.69
2018-09-19T10:23:37.273Z,972.76
2018-09-19T10:24:47.425Z,972.71
2018-09-19T10:25:57.578Z,972.7
2018-09-19T10:27:07.447Z,972.71
2018-09-19T10:28:17.589Z,972.64
2018-09-19T10:29:27.740Z,972.58
2018-09-19T10:30:38.467Z,972.65
2018-09-19T10:31:48.059Z,972.63
2018-09-19T10:32:57.924Z,972.59
2018-09-19T10:34:08.077Z,972.63
2018-09-19T10:35:18.018Z,972.5
2018-09-19T10:36:28.625Z,972.53
2018-09-19T10:37:38.771Z,972.53
2018-09-19T10:38:48.922Z,972.54
2018-09-19T10:39:59.072Z,972.62
2018-09-19T10:41:09.225Z,972.55
2018-09-19T10:42:19.451Z,972.71
2018-09-19T10:43:29.594Z,972.63
2018-09-19T10:44:39.736Z,972.68
2018-09-19T10:45:49.910Z,972.66
2018-09-19T10:46:59.779Z,972.64
2018-09-19T10:48:09.372Z,972.66
2018-09-19T10:49:19.606Z,972.65
2018-09-19T10:50:29.695Z,972.65
2018-09-19T10:51:39.833Z,972.63
2018-09-19T10:52:49.984Z,972.59
2018-09-19T10:53:59.847Z,972.52
2018-09-19T10:55:10.045Z,972.55
2018-09-19T10:56:19.926Z,972.54
2018-09-19T10:57:30.081Z,972.51
2018-09-19T10:58:39.958Z,972.61
2018-09-19T10:59:49.830Z,972.64
2018-09-19T11:01:00.022Z,972.64
2018-09-19T11:02:10.166Z,972.77
2018-09-19T11:03:20.303Z,972.83
2018-09-19T11:04:30.451Z,972.78
2018-09-19T11:05:40.594Z,972.84
2018-09-19T11:06:50.241Z,972.85
2018-09-19T11:08:00.122Z,972.8
2018-09-19T11:09:10.264Z,972.82
2018-09-19T11:10:20.406Z,972.85
2018-09-19T11:11:30.291Z,972.81
2018-09-19T11:12:40.169Z,972.8
2018-09-19T11:13:50.315Z,972.81
2018-09-19T11:15:00.461Z,972.88
2018-09-19T11:16:10.061Z,972.94
2018-09-19T11:17:19.937Z,972.83
2018-09-19T11:18:29.813Z,972.78
2018-09-19T11:19:39.682Z,972.83
2018-09-19T11:20:49.830Z,972.79
2018-09-19T11:21:59.974Z,972.86
2018-09-19T11:23:09.844Z,972.95
2018-09-19T11:24:19.713Z,972.86
2018-09-19T11:25:29.578Z,972.91
2018-09-19T11:26:39.720Z,972.92
2018-09-19T11:27:49.876Z,972.89
2018-09-19T11:29:00.064Z,972.85
2018-09-19T11:30:09.936Z,972.96
2018-09-19T11:31:20.083Z,972.97
2018-09-19T11:32:30.232Z,973.03
2018-09-19T11:33:40.139Z,972.93
2018-09-19T11:34:50.528Z,973.03
2018-09-19T11:36:00.680Z,973.06
2018-09-19T11:37:10.552Z,973.08
2018-09-19T11:38:20.422Z,973.05
2018-09-19T11:39:30.019Z,973.06
2018-09-19T11:40:39.892Z,973.02
2018-09-19T11:41:49.767Z,972.99
2018-09-19T11:42:59.916Z,973
2018-09-19T11:44:09.568Z,973.01
2018-09-19T11:45:19.440Z,973.06
2018-09-19T11:46:29.311Z,973.03
2018-09-19T11:47:39.187Z,973.01
2018-09-19T11:48:49.338Z,973
2018-09-19T11:49:59.227Z,973.02
2018-09-19T11:51:09.379Z,972.94
2018-09-19T11:52:19.527Z,972.99
2018-09-19T11:53:29.734Z,972.91
2018-09-19T11:54:39.880Z,972.88
2018-09-19T11:55:50.025Z,972.93
2018-09-19T11:56:59.625Z,973.05
2018-09-19T11:58:09.288Z,973.11
2018-09-19T11:59:19.495Z,972.9
2018-09-19T12:00:29.645Z,973.02
2018-09-19T12:01:39.791Z,972.95
2018-09-19T12:02:49.399Z,972.96
2018-09-19T12:03:59.553Z,973.13
2018-09-19T12:05:09.752Z,973.1
2018-09-19T12:06:19.901Z,973.16
2018-09-19T12:07:30.048Z,973.13
2018-09-19T12:08:40.201Z,973.16
2018-09-19T12:09:50.350Z,973.13
2018-09-19T12:11:00.555Z,973.25
2018-09-19T12:12:10.705Z,973.1
2018-09-19T12:13:20.852Z,973.16
2018-09-19T12:14:31.004Z,973.16
2018-09-19T12:15:40.876Z,972.98
2018-09-19T12:16:50.521Z,972.88
2018-09-19T12:18:00.397Z,972.78
2018-09-19T12:19:10.545Z,973.09
2018-09-19T12:20:20.773Z,973
2018-09-19T12:21:30.924Z,973.04
2018-09-19T12:22:40.848Z,973.07
2018-09-19T12:23:50.995Z,973.12
2018-09-19T12:25:00.867Z,972.97
2018-09-19T12:26:11.059Z,973.04
2018-09-19T12:27:21.608Z,973.05
2018-09-19T12:28:31.818Z,973.06
2018-09-19T12:29:41.971Z,972.95
2018-09-19T12:30:52.119Z,972.91
2018-09-19T12:32:02.317Z,972.91
2018-09-19T12:33:12.471Z,972.91
2018-09-19T12:34:22.741Z,972.84
2018-09-19T12:35:32.907Z,972.77
2018-09-19T12:36:42.779Z,972.68
2018-09-19T12:37:52.938Z,972.83
2018-09-19T12:39:03.081Z,972.72
2018-09-19T12:40:13.010Z,972.6
2018-09-19T12:41:22.613Z,972.67
2018-09-19T12:42:32.484Z,972.56
2018-09-19T12:43:42.632Z,972.6
2018-09-19T12:44:52.778Z,972.54
2018-09-19T12:46:03.075Z,972.44
2018-09-19T12:47:12.674Z,972.46
2018-09-19T12:48:22.820Z,972.54
2018-09-19T12:49:33.018Z,972.45
2018-09-19T12:50:42.895Z,972.48
2018-09-19T12:51:53.093Z,972.48
2018-09-19T12:53:03.011Z,972.47
2018-09-19T12:54:13.246Z,972.52
2018-09-19T12:55:23.140Z,972.52
2018-09-19T12:56:33.294Z,972.58
2018-09-19T12:57:42.955Z,972.61
2018-09-19T12:58:53.116Z,972.48
2018-09-19T13:00:02.719Z,972.53
2018-09-19T13:01:12.325Z,972.47
2018-09-19T13:02:22.481Z,972.24
2018-09-19T13:03:32.674Z,972.29
2018-09-19T13:04:42.826Z,972.3
2018-09-19T13:05:52.974Z,972.37
2018-09-19T13:07:02.630Z,972.36
2018-09-19T13:08:12.508Z,972.37
2018-09-19T13:09:22.103Z,972.3
2018-09-19T13:10:31.974Z,972.35
2018-09-19T13:11:41.848Z,972.36
2018-09-19T13:12:51.448Z,972.25
2018-09-19T13:14:01.319Z,972.31
2018-09-19T13:15:11.464Z,972.26
2018-09-19T13:16:21.610Z,972.23
2018-09-19T13:17:31.759Z,972.27
2018-09-19T13:18:41.906Z,972.3
2018-09-19T13:19:52.049Z,972.29
2018-09-19T13:21:02.248Z,972.3
2018-09-19T13:22:11.841Z,972.31
2018-09-19T13:23:21.708Z,972.36
2018-09-19T13:24:31.298Z,972.23
2018-09-19T13:25:41.161Z,972.23
2018-09-19T13:26:51.026Z,972.3
2018-09-19T13:28:00.624Z,972.3
2018-09-19T13:29:10.774Z,972.17
2018-09-19T13:30:20.643Z,972.28
2018-09-19T13:31:30.792Z,972.32
2018-09-19T13:32:40.710Z,972.29
2018-09-19T13:33:50.588Z,972.22
2018-09-19T13:35:00.737Z,972.23
2018-09-19T13:36:10.628Z,972.22
2018-09-19T13:37:20.497Z,972.24
2018-09-19T13:38:30.646Z,972.21
2018-09-19T13:39:40.514Z,972.22
2018-09-19T13:40:50.663Z,972.22
2018-09-19T13:42:00.805Z,972.14
2018-09-19T13:43:10.670Z,972.16
2018-09-19T13:44:20.859Z,972.14
2018-09-19T13:45:31.001Z,972.17
2018-09-19T13:46:41.142Z,972.23
2018-09-19T13:47:51.282Z,972.16
2018-09-19T13:49:01.425Z,972.19
2018-09-19T13:50:11.347Z,972.17
2018-09-19T13:51:21.490Z,972.24
2018-09-19T13:52:31.358Z,972.23
2018-09-19T13:53:41.496Z,972.18
2018-09-19T13:54:51.637Z,972.13
2018-09-19T13:56:01.550Z,972.13
2018-09-19T13:57:10.868Z,972.15
2018-09-19T13:58:21.009Z,972.12
2018-09-19T13:59:31.160Z,972.15
2018-09-19T14:00:40.761Z,972.11
2018-09-19T14:01:50.952Z,972.21
2018-09-19T14:03:00.552Z,972.11
2018-09-19T14:04:10.704Z,971.94
2018-09-19T14:05:20.533Z,971.95
2018-09-19T14:06:30.679Z,972.04
2018-09-19T14:07:40.923Z,971.96
2018-09-19T14:08:51.078Z,971.91
2018-09-19T14:10:01.222Z,971.86
2018-09-19T14:11:10.823Z,971.96
2018-09-19T14:12:21.080Z,971.78
2018-09-19T14:13:31.390Z,971.75
2018-09-19T14:14:41.270Z,971.71
2018-09-19T14:15:51.411Z,971.62
2018-09-19T14:17:01.281Z,971.64
2018-09-19T14:18:11.148Z,971.5
2018-09-19T14:19:21.112Z,971.47
2018-09-19T14:20:31.259Z,971.43
2018-09-19T14:21:41.126Z,971.33
2018-09-19T14:22:50.995Z,971.4
2018-09-19T14:24:01.145Z,971.4
2018-09-19T14:25:11.060Z,971.38
2018-09-19T14:26:20.931Z,971.48
2018-09-19T14:27:30.804Z,971.36
2018-09-19T14:28:40.675Z,971.28
2018-09-19T14:29:50.550Z,971.43
2018-09-19T14:31:00.694Z,971.46
2018-09-19T14:32:10.902Z,971.45
2018-09-19T14:33:20.765Z,971.57
2018-09-19T14:34:30.911Z,971.71
2018-09-19T14:35:41.167Z,971.64
2018-09-19T14:36:52.155Z,971.68
2018-09-19T14:38:02.296Z,971.8